Time;durP1;ratioP1;P1;durP2;ratioP2;P2;SDS_P1;SDS_P2;PMS_P1;PMS_P2;Temp;Humidity;BMP_temperature;BMP_pressure;BME280_temperature;BME280_humidity;BME280_pressure;Samples;Min_cycle;Max_cycle;Signal;HPM_P1;HPM_P2
2022/06/03 00:02:01;;;;;;;9.13;4.78;;;;;;;13.66;82.99;96058.38;1756538;82;21073;-63
2022/06/03 00:05:08;;;;;;;8.05;5.83;;;;;;;13.56;82.84;96064.34;1756422;82;21017;-63
2022/06/03 00:08:00;;;;;;;6.72;3.83;;;;;;;13.57;82.96;96071.38;1755123;82;21455;-63
2022/06/03 00:11:09;;;;;;;4.65;4.00;;;;;;;13.50;82.19;96071.09;1756473;82;21014;-64
2022/06/03 00:13:56;;;;;;;5.00;4.35;;;;;;;13.33;82.73;96066.19;1756695;82;20976;-63
2022/06/03 00:17:19;;;;;;;8.65;5.20;;;;;;;13.20;83.17;96073.92;1756718;81;21077;-63
2022/06/03 00:19:57;;;;;;;8.58;5.62;;;;;;;13.10;83.70;96073.70;1756477;81;21077;-63
2022/06/03 00:22:41;;;;;;;7.22;5.72;;;;;;;13.01;83.57;96073.45;1756573;82;21029;-64
2022/06/03 00:25:45;;;;;;;8.08;5.95;;;;;;;13.04;84.31;96070.73;1756157;82;21021;-64
2022/06/03 00:28:30;;;;;;;;;;;;;;;13.06;84.28;96074.23;1759257;81;21487;-64
2022/06/03 00:31:11;;;;;;;6.08;4.80;;;;;;;13.02;83.90;96079.62;1755846;82;20106;-64
2022/06/03 00:34:11;;;;;;;7.75;5.70;;;;;;;12.91;83.61;96082.49;1756562;82;21029;-64
2022/06/03 00:37:13;;;;;;;6.17;5.00;;;;;;;12.80;83.59;96081.39;1756833;82;21021;-64
2022/06/03 00:39:47;;;;;;;9.15;5.87;;;;;;;12.77;83.74;96078.34;1756641;82;21476;-63
2022/06/03 00:42:43;;;;;;;8.43;6.22;;;;;;;12.84;84.15;96073.78;1753163;82;21017;-63
2022/06/03 00:46:00;;;;;;;8.50;6.05;;;;;;;12.84;84.25;96067.62;1759787;81;21040;-63
2022/06/03 00:48:38;;;;;;;9.20;5.33;;;;;;;12.77;84.60;96066.86;1764264;81;21076;-63
2022/06/03 00:51:21;;;;;;;6.53;5.50;;;;;;;12.70;83.75;96078.46;1764697;81;21545;-64
2022/06/03 00:54:33;;;;;;;6.72;5.00;;;;;;;12.64;83.80;96083.43;1729654;81;21029;-64
2022/06/03 00:57:22;;;;;;;8.55;5.05;;;;;;;12.59;83.94;96086.61;1764827;81;20995;-64
2022/06/03 01:00:14;;;;;;;5.90;5.40;;;;;;;12.56;83.66;96078.73;1764358;81;21077;-64
2022/06/03 01:03:24;;;;;;;7.40;5.67;;;;;;;12.54;83.92;96081.41;1764923;81;21530;-64
2022/06/03 01:06:11;;;;;;;9.13;5.17;;;;;;;12.51;84.94;96074.84;1764965;81;21538;-64
2022/06/03 01:09:06;;;;;;;9.53;5.20;;;;;;;12.53;84.83;96078.34;1765149;81;21039;-64
2022/06/03 01:12:10;;;;;;;8.60;5.15;;;;;;;12.61;84.99;96085.28;1764821;81;21025;-63
2022/06/03 01:15:13;;;;;;;6.00;5.17;;;;;;;12.70;84.82;96081.11;1764469;81;21020;-64
2022/06/03 01:17:56;;;;;;;10.30;4.65;;;;;;;12.64;83.99;96103.74;1765001;81;21040;-63
2022/06/03 01:20:38;;;;;;;5.42;4.40;;;;;;;12.62;83.91;96102.44;1764213;81;21087;-63
2022/06/03 01:23:45;;;;;;;9.90;5.47;;;;;;;12.51;83.68;96104.42;1764744;81;21031;-63
2022/06/03 01:26:45;;;;;;;5.22;4.67;;;;;;;12.42;83.57;96097.50;1765321;81;21069;-63
2022/06/03 01:29:35;;;;;;;9.58;4.92;;;;;;;12.48;84.35;96095.22;1765035;81;21008;-63
2022/06/03 01:32:48;;;;;;;6.28;4.97;;;;;;;12.45;84.32;96096.14;1764558;81;21487;-63
2022/06/03 01:35:42;;;;;;;7.12;4.50;;;;;;;12.58;84.90;96087.53;1764749;81;20993;-63
2022/06/03 01:38:25;;;;;;;6.00;5.00;;;;;;;12.63;83.74;96093.61;1765048;81;21518;-64
2022/06/03 01:41:16;;;;;;;7.92;4.87;;;;;;;12.51;84.04;96097.80;1763526;81;21101;-64
2022/06/03 01:44:12;;;;;;;4.95;4.20;;;;;;;12.44;83.93;96091.73;1764424;81;21610;-64
2022/06/03 01:47:19;;;;;;;4.67;3.85;;;;;;;12.48;83.87;96100.52;1764375;81;21084;-64
2022/06/03 01:50:21;;;;;;;6.62;4.60;;;;;;;12.44;83.17;96097.03;1763679;81;21021;-64
2022/06/03 01:53:12;;;;;;;5.12;4.60;;;;;;;12.34;83.62;96096.31;1764721;81;21550;-63
2022/06/03 01:55:56;;;;;;;5.30;4.53;;;;;;;12.31;83.30;96091.54;1752690;81;21494;-63
2022/06/03 01:59:13;;;;;;;8.65;4.60;;;;;;;12.32;83.70;96091.95;1764934;81;21012;-63
2022/06/03 02:02:29;;;;;;;6.30;4.95;;;;;;;12.37;84.44;96091.87;1764978;81;20996;-63
2022/06/03 02:05:39;;;;;;;10.82;4.78;;;;;;;12.51;84.55;96096.48;1764632;81;21017;-63
2022/06/03 02:08:37;;;;;;;4.85;4.35;;;;;;;12.50;83.38;96099.59;1764724;81;21590;-63
2022/06/03 02:11:35;;;;;;;5.92;4.80;;;;;;;12.42;83.33;96101.47;1764853;81;21035;-64
2022/06/03 02:14:38;;;;;;;6.08;4.50;;;;;;;12.30;83.28;96099.06;1764560;81;20993;-64
2022/06/03 02:17:36;;;;;;;5.70;3.87;;;;;;;12.25;83.76;96100.46;1764779;81;21080;-64
2022/06/03 02:20:27;;;;;;;5.72;4.12;;;;;;;12.18;83.40;96093.98;1764536;81;21104;-64
2022/06/03 02:23:29;;;;;;;5.53;4.28;;;;;;;12.21;83.69;96104.50;1764436;81;21020;-64
2022/06/03 02:26:20;;;;;;;5.72;4.35;;;;;;;12.22;83.69;96098.30;1765058;81;20978;-64
2022/06/03 02:32:59;;;;;;;5.45;4.12;;;;;;;12.05;83.73;96101.25;1744747;82;20962;-63
2022/06/03 02:36:13;;;;;;;5.53;4.22;;;;;;;12.09;84.99;96102.92;1744447;82;21459;-63
2022/06/03 02:39:34;;;;;;;4.85;4.35;;;;;;;12.16;84.73;96099.28;1807734;79;21015;-63
2022/06/03 02:42:12;;;;;;;5.55;4.45;;;;;;;12.12;83.98;96096.28;1807773;79;21501;-63
2022/06/03 02:45:06;;;;;;;4.55;4.10;;;;;;;12.01;84.05;96098.22;1806799;79;21014;-63
2022/06/03 02:48:12;;;;;;;5.12;4.20;;;;;;;12.04;84.06;96091.09;1807344;79;21023;-63
2022/06/03 02:51:13;;;;;;;4.50;3.98;;;;;;;12.08;84.28;96095.45;1807494;79;21058;-64
2022/06/03 02:54:19;;;;;;;5.07;4.30;;;;;;;12.18;84.62;96100.14;1807971;79;20976;-64
2022/06/03 02:57:00;;;;;;;10.28;5.10;;;;;;;12.25;84.36;96103.11;1807582;79;21011;-64
2022/06/03 03:00:06;;;;;;;9.13;5.72;;;;;;;12.41;84.38;96102.84;1807760;79;20999;-64
2022/06/03 03:03:05;;;;;;;6.53;4.78;;;;;;;12.41;83.44;96102.84;1808125;79;20971;-64
2022/06/03 03:05:40;;;;;;;5.53;4.55;;;;;;;12.38;83.42;96093.64;1744714;82;21487;-63
2022/06/03 03:08:44;;;;;;;5.95;4.92;;;;;;;12.37;83.16;96098.48;1789699;79;21500;-63
2022/06/03 03:11:45;;;;;;;6.22;4.97;;;;;;;12.39;84.08;96101.98;1808320;79;20999;-63
2022/06/03 03:14:46;;;;;;;8.20;5.53;;;;;;;12.39;84.38;96108.14;1807997;79;20991;-63
2022/06/03 03:17:47;;;;;;;6.95;4.75;;;;;;;12.38;84.64;96098.93;1807725;79;21516;-63
2022/06/03 03:20:57;;;;;;;5.35;4.83;;;;;;;12.35;84.72;96106.48;1807892;79;21485;-63
2022/06/03 03:23:50;;;;;;;5.55;5.00;;;;;;;12.30;84.48;96109.65;1807857;79;21002;-63
2022/06/03 03:26:39;;;;;;;5.30;4.80;;;;;;;12.28;84.10;96116.28;1806867;79;21022;-63
2022/06/03 03:30:02;;;;;;;5.37;4.20;;;;;;;12.28;84.10;96116.28;1806170;79;21014;-64
2022/06/03 03:33:03;;;;;;;6.53;5.12;;;;;;;12.34;84.26;96113.97;1807821;79;20988;-64
2022/06/03 03:36:01;;;;;;;6.75;5.45;;;;;;;12.37;85.52;96119.20;1807950;79;21031;-64
2022/06/03 03:38:42;;;;;;;7.50;5.22;;;;;;;12.44;85.26;96119.52;1807980;79;20971;-64
2022/06/03 03:41:43;;;;;;;6.53;4.72;;;;;;;12.50;85.26;96118.57;1788485;79;21536;-64
2022/06/03 03:45:01;;;;;;;7.03;5.78;;;;;;;12.60;85.25;96119.25;1807828;79;20966;-64
2022/06/03 03:48:21;;;;;;;7.10;6.40;;;;;;;12.69;84.97;96123.06;1768696;80;21079;-63
2022/06/03 03:51:14;;;;;;;8.10;6.37;;;;;;;12.71;84.89;96124.78;1797617;80;21528;-63
2022/06/03 03:54:18;;;;;;;7.97;4.53;;;;;;;12.77;85.02;96129.08;1798497;80;21482;-63
2022/06/03 03:57:20;;;;;;;7.65;5.90;;;;;;;12.87;85.15;96133.30;1799213;80;20996;-63
2022/06/03 03:59:55;;;;;;;8.58;6.75;;;;;;;12.93;85.92;96133.20;1798978;80;20984;-64
2022/06/03 04:02:50;;;;;;;8.18;6.40;;;;;;;13.03;85.49;96130.36;1798810;80;21035;-63
2022/06/03 04:05:56;;;;;;;9.45;6.80;;;;;;;13.09;85.10;96135.09;1798943;80;21015;-64
2022/06/03 04:09:07;;;;;;;7.85;5.87;;;;;;;13.20;85.21;96133.55;1799303;80;21474;-64
2022/06/03 04:11:57;;;;;;;7.15;5.90;;;;;;;13.34;84.95;96130.20;1799204;80;21557;-64
2022/06/03 04:14:45;;;;;;;8.73;5.83;;;;;;;13.58;85.32;96131.91;1799311;80;20991;-64
2022/06/03 04:17:39;;;;;;;7.03;6.22;;;;;;;13.74;84.66;96128.48;1799073;80;20995;-64
2022/06/03 04:20:58;;;;;;;9.03;7.35;;;;;;;13.91;84.83;96124.09;1799131;80;20976;-64
2022/06/03 04:23:50;;;;;;;10.70;7.08;;;;;;;14.07;84.45;96122.38;1761760;81;21491;-63
2022/06/03 04:26:48;;;;;;;9.60;6.58;;;;;;;14.18;84.00;96118.13;1798044;80;21039;-64
2022/06/03 04:29:54;;;;;;;8.60;6.45;;;;;;;14.27;83.83;96118.38;1798997;80;21066;-63
2022/06/03 04:33:14;;;;;;;8.13;5.97;;;;;;;14.35;84.04;96127.02;1799210;80;20967;-63
2022/06/03 04:36:23;;;;;;;9.13;6.30;;;;;;;14.49;83.78;96127.55;1799056;80;21023;-63
2022/06/03 04:39:12;;;;;;;8.90;5.75;;;;;;;14.63;83.43;96119.72;1799049;80;20992;-63
2022/06/03 04:42:10;;;;;;;10.75;6.90;;;;;;;14.80;83.21;96112.17;1768122;80;21584;-63
2022/06/03 04:45:22;;;;;;;9.90;5.92;;;;;;;14.88;83.08;96112.83;1766916;80;21178;-63
2022/06/03 04:47:57;;;;;;;8.10;5.85;;;;;;;15.05;82.66;96117.69;1798625;80;20980;-64
2022/06/03 04:51:03;;;;;;;9.63;6.37;;;;;;;15.29;82.81;96110.80;1798920;80;21026;-64
2022/06/03 04:54:11;;;;;;;8.18;6.70;;;;;;;15.29;82.81;96110.80;1798735;80;21008;-64
2022/06/03 04:57:08;;;;;;;8.73;7.17;;;;;;;15.42;81.95;96123.30;1799208;80;20977;-64
2022/06/03 05:00:06;;;;;;;8.63;6.42;;;;;;;15.49;82.23;96126.17;1798078;80;21373;-64
2022/06/03 05:02:57;;;;;;;6.00;5.40;;;;;;;15.54;81.41;96114.07;1797780;80;21074;-66
2022/06/03 05:05:46;;;;;;;6.97;5.87;;;;;;;15.53;79.53;96122.98;1792206;80;21054;-64
2022/06/03 05:08:50;;;;;;;6.70;5.47;;;;;;;15.53;79.53;96122.98;1797592;80;21065;-63
2022/06/03 05:11:58;;;;;;;6.42;5.20;;;;;;;15.62;79.52;96124.48;1799001;80;20996;-64
2022/06/03 05:14:51;;;;;;;9.70;6.10;;;;;;;15.81;79.90;96112.41;1796895;80;21011;-65
2022/06/03 05:18:01;;;;;;;6.95;5.90;;;;;;;16.00;80.10;96113.58;1799076;80;21047;-70
2022/06/03 05:21:06;;;;;;;7.28;6.10;;;;;;;16.15;80.34;96121.98;1797545;80;21063;-67
2022/06/03 05:23:56;;;;;;;7.58;5.75;;;;;;;16.34;80.36;96127.59;1798853;80;21015;-67
2022/06/03 05:27:01;;;;;;;7.55;6.30;;;;;;;16.47;79.93;96131.59;1798713;80;20995;-68
2022/06/03 05:30:18;;;;;;;7.45;6.05;;;;;;;16.58;79.70;96125.45;1816765;78;21017;-68
2022/06/03 05:33:30;;;;;;;8.75;6.00;;;;;;;16.72;79.62;96128.97;1726169;83;21290;-65
2022/06/03 05:36:30;;;;;;;7.25;5.45;;;;;;;16.80;78.78;96128.27;1764277;81;20972;-68
2022/06/03 05:39:48;;;;;;;7.70;4.95;;;;;;;16.91;78.86;96123.02;1766189;81;20974;-67
2022/06/03 05:42:29;;;;;;;8.50;5.03;;;;;;;17.07;78.29;96124.23;1760256;81;21041;-68
2022/06/03 05:45:32;;;;;;;7.22;4.60;;;;;;;17.24;77.66;96124.97;1766907;81;21057;-68
2022/06/03 05:48:10;;;;;;;4.92;4.42;;;;;;;17.35;77.43;96128.11;1747933;81;21544;-68
2022/06/03 05:50:55;;;;;;;8.15;4.30;;;;;;;17.56;77.89;96131.77;1755164;81;21007;-68
2022/06/03 05:53:56;;;;;;;6.87;4.80;;;;;;;17.80;77.97;96139.82;1819796;79;20979;-66
2022/06/03 05:56:52;;;;;;;4.67;4.10;;;;;;;17.99;77.52;96139.49;1763338;81;21028;-65
2022/06/03 05:59:36;;;;;;;7.00;4.22;;;;;;;18.09;76.03;96138.23;1765591;81;21514;-65
2022/06/03 06:02:26;;;;;;;4.97;4.30;;;;;;;18.22;75.40;96127.03;1739474;81;20982;-65
2022/06/03 06:05:13;;;;;;;6.08;4.00;;;;;;;18.43;75.65;96131.99;1763092;81;21421;-65
2022/06/03 06:07:54;;;;;;;5.80;4.10;;;;;;;18.66;75.70;96138.58;1764572;81;21522;-65
2022/06/03 06:10:49;;;;;;;5.65;4.33;;;;;;;18.89;75.13;96144.32;1764549;81;20993;-65
2022/06/03 06:14:01;;;;;;;6.00;4.63;;;;;;;19.11;75.40;96146.09;1761308;81;21068;-66
2022/06/03 06:16:42;;;;;;;5.80;4.53;;;;;;;19.28;74.36;96141.31;1757640;81;20974;-66
2022/06/03 06:19:40;;;;;;;6.97;5.25;;;;;;;19.42;74.24;96138.91;1765106;81;20974;-66
2022/06/03 06:22:27;;;;;;;6.60;5.03;;;;;;;19.59;74.17;96143.03;1766491;80;20985;-66
2022/06/03 06:25:20;;;;;;;7.72;5.05;;;;;;;19.75;74.21;96137.86;1752191;81;21001;-66
2022/06/03 06:28:13;;;;;;;8.53;4.58;;;;;;;19.96;73.67;96144.50;1755927;81;21025;-66
2022/06/03 06:31:04;;;;;;;6.60;4.80;;;;;;;20.17;73.00;96145.31;1797847;79;21023;-67
2022/06/03 06:33:47;;;;;;;17.85;4.33;;;;;;;20.35;72.40;96139.53;1761960;81;21022;-66
2022/06/03 06:36:31;;;;;;;5.72;4.40;;;;;;;20.47;69.80;96152.34;1767871;81;21525;-65
2022/06/03 06:39:18;;;;;;;10.98;4.72;;;;;;;20.54;69.31;96148.42;1734490;83;21681;-66
2022/06/03 06:41:53;;;;;;;27.73;4.92;;;;;;;20.66;69.34;96154.56;1734746;83;21014;-66
2022/06/03 06:44:49;;;;;;;16.20;4.62;;;;;;;20.75;68.64;96147.86;1735476;82;21029;-66
2022/06/03 06:47:21;;;;;;;16.42;5.03;;;;;;;20.83;67.96;96145.65;1748331;81;21046;-66
2022/06/03 06:50:06;;;;;;;14.43;4.87;;;;;;;20.95;68.25;96150.88;1796047;80;21009;-66
2022/06/03 06:53:14;;;;;;;17.15;4.95;;;;;;;21.07;68.17;96144.89;1773802;81;21296;-66
2022/06/03 06:56:12;;;;;;;10.38;4.60;;;;;;;21.16;67.10;96149.76;1773125;81;21070;-66
2022/06/03 06:58:50;;;;;;;9.05;4.22;;;;;;;21.15;67.39;96157.91;1766333;81;20979;-67
2022/06/03 07:01:27;;;;;;;11.55;4.47;;;;;;;21.18;66.71;96153.72;1742559;81;21117;-66
2022/06/03 07:04:04;;;;;;;10.28;4.17;;;;;;;21.27;67.27;96159.97;1759030;81;21073;-66
2022/06/03 07:06:52;;;;;;;8.30;4.37;;;;;;;21.34;66.68;96159.15;1759091;81;20995;-65
2022/06/03 07:09:35;;;;;;;8.98;4.37;;;;;;;21.37;64.20;96155.85;1758063;81;21156;-66
2022/06/03 07:12:13;;;;;;;8.78;4.47;;;;;;;21.43;63.43;96160.53;1757672;81;21049;-65
2022/06/03 07:14:59;;;;;;;8.18;4.17;;;;;;;21.45;63.89;96160.84;1759065;81;21479;-66
2022/06/03 07:20:51;;;;;;;12.15;4.30;;;;;;;21.45;63.74;96168.91;1701561;84;21050;-66
2022/06/03 07:23:52;;;;;;;6.72;4.47;;;;;;;21.59;62.72;96165.47;1762134;81;20978;-65
2022/06/03 07:26:39;;;;;;;9.28;4.72;;;;;;;21.76;63.13;96163.23;1744914;81;20987;-66
2022/06/03 07:29:17;;;;;;;7.55;4.42;;;;;;;21.90;63.13;96168.73;1758212;81;21480;-65
2022/06/03 07:32:07;;;;;;;8.23;4.55;;;;;;;22.03;62.13;96164.91;1764671;81;20991;-66
2022/06/03 07:34:53;;;;;;;6.55;4.67;;;;;;;22.22;63.16;96166.98;1765389;81;20982;-67
2022/06/03 07:37:46;;;;;;;7.67;4.80;;;;;;;22.41;62.61;96166.83;1764014;81;21072;-66
2022/06/03 07:40:19;;;;;;;;;;;;;;;22.51;62.14;96166.32;1765273;81;21119;-70
2022/06/03 07:42:51;;;;;;;7.87;4.80;;;;;;;22.66;60.36;96163.61;1759469;81;20164;-68
2022/06/03 07:45:35;;;;;;;6.03;4.80;;;;;;;22.68;60.72;96172.47;1760449;81;21116;-68
2022/06/03 07:48:16;;;;;;;5.37;4.53;;;;;;;22.85;61.86;96172.81;1760661;81;21341;-65
2022/06/03 07:50:49;;;;;;;6.33;4.85;;;;;;;22.94;60.48;96168.73;1760599;81;21033;-64
2022/06/03 07:53:21;;;;;;;5.67;5.17;;;;;;;23.01;60.18;96172.84;1761342;81;21137;-65
2022/06/03 07:55:56;;;;;;;5.17;4.67;;;;;;;23.19;60.53;96166.84;1760896;81;21077;-66
2022/06/03 07:58:25;;;;;;;5.80;5.22;;;;;;;23.33;60.09;96166.00;1759790;81;20987;-67
2022/06/03 08:00:53;;;;;;;5.87;4.53;;;;;;;23.45;59.99;96169.31;1753947;81;20994;-65
2022/06/03 08:03:24;;;;;;;5.33;4.78;;;;;;;23.46;58.85;96170.17;1762767;81;21018;-64
2022/06/03 08:05:58;;;;;;;5.30;4.80;;;;;;;23.58;58.92;96170.77;1738220;82;21504;-69
2022/06/03 08:11:28;;;;;;;6.17;4.62;;;;;;;23.79;58.01;96173.13;1736889;82;21129;-65
2022/06/03 08:13:57;;;;;;;4.97;4.58;;;;;;;23.82;57.65;96167.58;1767390;81;21150;-65
2022/06/03 08:16:41;;;;;;;7.17;5.05;;;;;;;23.89;58.42;96171.15;1737190;82;21049;-64
2022/06/03 08:19:15;;;;;;;5.12;4.62;;;;;;;23.99;58.50;96167.40;1768132;81;21057;-65
2022/06/03 08:21:53;;;;;;;5.20;4.70;;;;;;;24.13;57.89;96166.02;1736467;82;21046;-65
2022/06/03 08:24:24;;;;;;;6.58;4.85;;;;;;;24.24;57.44;96172.11;1762698;81;21002;-65
2022/06/03 08:26:59;;;;;;;6.05;4.92;;;;;;;24.28;55.04;96173.63;1717647;81;21021;-66
2022/06/03 08:29:34;;;;;;;8.38;5.47;;;;;;;24.31;55.15;96176.61;1749500;81;21018;-65
2022/06/03 08:32:16;;;;;;;6.10;5.00;;;;;;;24.42;56.05;96174.10;1755813;81;21519;-65
2022/06/03 08:34:51;;;;;;;5.62;4.17;;;;;;;24.56;56.66;96175.44;1756490;81;21109;-65
2022/06/03 08:37:23;;;;;;;7.95;4.90;;;;;;;24.69;55.49;96174.64;1726562;81;21058;-69
2022/06/03 08:39:53;;;;;;;5.62;4.30;;;;;;;24.73;54.68;96173.48;1753697;82;21567;-66
2022/06/03 08:42:41;;;;;;;5.08;4.58;;;;;;;24.79;55.33;96172.58;1776884;81;21110;-68
2022/06/03 08:45:18;;;;;;;9.98;5.05;;;;;;;24.80;54.31;96166.72;1777450;81;21074;-68
2022/06/03 08:47:55;;;;;;;4.80;4.30;;;;;;;24.81;53.91;96163.04;1776493;80;21058;-68
2022/06/03 08:50:57;;;;;;;7.92;4.60;;;;;;;24.90;54.51;96171.03;1778095;80;21023;-66
2022/06/03 08:53:47;;;;;;;11.20;4.70;;;;;;;24.88;53.34;96171.61;1780391;80;21046;-65
2022/06/03 08:56:22;;;;;;;5.25;4.30;;;;;;;24.92;53.05;96166.37;1781346;80;21054;-66
2022/06/03 08:59:06;;;;;;;14.98;4.67;;;;;;;25.01;53.53;96174.72;1773991;80;21020;-63
2022/06/03 09:01:51;;;;;;;8.23;4.37;;;;;;;25.15;54.56;96172.46;1741757;82;21081;-66
2022/06/03 09:04:25;;;;;;;6.78;4.08;;;;;;;25.36;54.93;96167.46;1756048;82;21029;-65
2022/06/03 09:07:20;;;;;;;8.88;4.35;;;;;;;25.57;54.03;96164.25;1756869;81;21057;-65
2022/06/03 09:09:58;;;;;;;7.47;4.50;;;;;;;25.68;53.90;96169.30;1768049;81;21106;-65
2022/06/03 09:12:34;;;;;;;5.17;4.30;;;;;;;25.64;52.83;96161.02;1756036;82;21117;-65
2022/06/03 09:15:14;;;;;;;4.47;4.08;;;;;;;25.79;53.18;96163.62;1757829;82;20955;-65
2022/06/03 09:17:53;;;;;;;5.65;4.10;;;;;;;25.82;51.85;96157.50;1758776;81;21057;-65
2022/06/03 09:20:40;;;;;;;9.05;4.42;;;;;;;25.96;52.76;96149.81;1767337;81;21061;-65
2022/06/03 09:23:11;;;;;;;5.58;4.45;;;;;;;26.22;52.40;96148.44;1769341;81;21101;-65
2022/06/03 09:25:47;;;;;;;7.05;4.45;;;;;;;26.31;51.59;96154.05;1769411;81;21005;-65
2022/06/03 09:28:19;;;;;;;6.95;4.53;;;;;;;26.42;51.84;96155.97;1772952;81;21623;-65
2022/06/03 09:30:47;;;;;;;6.00;4.83;;;;;;;26.40;51.22;96150.28;1769342;81;20986;-65
2022/06/03 09:33:18;;;;;;;5.37;4.20;;;;;;;26.53;51.11;96150.68;1765166;81;21097;-64
2022/06/03 09:35:48;;;;;;;4.80;4.25;;;;;;;26.59;51.95;96150.71;1766248;81;21018;-65
2022/06/03 09:38:19;;;;;;;5.55;5.03;;;;;;;26.76;52.32;96154.39;1763353;81;21069;-65
2022/06/03 09:40:48;;;;;;;5.80;4.60;;;;;;;26.92;51.56;96159.52;1769716;81;20990;-65
2022/06/03 09:43:26;;;;;;;7.62;5.00;;;;;;;27.00;49.26;96158.08;1769535;81;21540;-65
2022/06/03 09:45:56;;;;;;;5.53;4.22;;;;;;;27.09;48.57;96156.91;1770550;81;21069;-65
2022/06/03 09:48:27;;;;;;;5.28;4.50;;;;;;;27.21;48.25;96153.77;1770166;81;21484;-65
2022/06/03 09:50:59;;;;;;;5.12;4.40;;;;;;;27.41;49.21;96156.30;1770736;81;21539;-65
2022/06/03 09:53:30;;;;;;;5.83;4.47;;;;;;;27.56;48.25;96160.53;1770675;81;21010;-65
2022/06/03 09:56:03;;;;;;;7.25;4.80;;;;;;;27.43;46.84;96157.55;1769800;81;21367;-65
2022/06/03 09:58:33;;;;;;;8.98;4.53;;;;;;;27.66;48.12;96159.34;1740131;82;21069;-65
2022/06/03 10:01:02;;;;;;;5.35;4.10;;;;;;;28.06;47.64;96156.23;1740328;82;21603;-65
2022/06/03 10:03:29;;;;;;;6.40;4.42;;;;;;;28.31;46.53;96155.12;1733497;82;21141;-65
2022/06/03 10:05:58;;;;;;;8.43;4.83;;;;;;;28.44;46.03;96153.17;1733545;82;21065;-65
2022/06/03 10:12:48;;;;;;;6.65;4.40;;;;;;;28.42;47.19;96152.39;1740170;82;21492;-65
2022/06/03 10:13:43;;;;;;;5.20;4.70;;;;;;;27.47;47.22;96164.45;1680201;85;21018;-65
2022/06/03 10:16:12;;;;;;;6.42;4.20;;;;;;;27.25;48.71;96160.69;1720717;82;20990;-65
2022/06/03 10:18:49;;;;;;;6.10;4.42;;;;;;;27.33;48.08;96151.47;1740155;82;21009;-65
2022/06/03 10:21:21;;;;;;;7.45;4.60;;;;;;;27.30;49.08;96152.22;1740311;82;20998;-65
2022/06/03 10:23:56;;;;;;;9.50;4.55;;;;;;;27.37;48.78;96157.05;1740301;82;21094;-65
2022/06/03 10:26:37;;;;;;;8.15;4.40;;;;;;;27.59;47.98;96154.91;1740412;82;21069;-65
2022/06/03 10:29:18;;;;;;;7.55;5.30;;;;;;;27.77;47.51;96155.31;1740235;82;21029;-65
2022/06/03 10:31:52;;;;;;;6.03;4.80;;;;;;;28.15;47.13;96153.27;1740063;82;21101;-65
2022/06/03 10:34:25;;;;;;;9.08;5.03;;;;;;;28.26;42.88;96147.86;1740420;82;21021;-65
2022/06/03 10:36:55;;;;;;;6.53;5.00;;;;;;;28.43;44.83;96155.50;1740444;82;21034;-65
2022/06/03 10:39:28;;;;;;;4.80;4.30;;;;;;;28.55;47.19;96144.18;1740245;82;21038;-65
2022/06/03 10:41:58;;;;;;;5.12;4.60;;;;;;;28.75;45.81;96148.44;1740439;82;21068;-65
2022/06/03 10:44:33;;;;;;;6.80;4.12;;;;;;;28.90;46.42;96149.88;1740261;82;21065;-65
2022/06/03 10:47:03;;;;;;;6.83;4.47;;;;;;;29.05;44.84;96149.99;1740146;82;21492;-65
2022/06/03 10:49:51;;;;;;;8.75;4.95;;;;;;;28.66;43.20;96144.15;1734303;82;21520;-65
2022/06/03 11:01:09;;;;;;;9.08;4.90;;;;;;;28.32;46.27;96136.49;1733543;83;21528;-65
2022/06/03 11:03:45;;;;;;;5.62;4.58;;;;;;;28.60;43.22;96127.48;1733827;82;20988;-65
2022/06/03 11:06:17;;;;;;;5.08;4.58;;;;;;;28.71;44.02;96131.55;1733193;83;21103;-65
2022/06/03 11:08:52;;;;;;;4.50;4.10;;;;;;;28.98;44.54;96130.23;1733804;83;21054;-66
2022/06/03 11:11:58;;;;;;;4.95;4.10;;;;;;;29.12;43.36;96128.11;1733745;82;21030;-65
2022/06/03 11:14:36;;;;;;;9.65;4.72;;;;;;;28.96;43.11;96123.59;1733692;83;20983;-66
2022/06/03 11:17:09;;;;;;;6.65;4.20;;;;;;;29.15;44.18;96115.27;1733569;83;21095;-66
2022/06/03 11:19:56;;;;;;;;;;;;;;;29.09;42.98;96116.16;1736296;83;21535;-65
2022/06/03 11:22:34;;;;;;;6.58;3.95;;;;;;;28.67;42.87;96113.78;1733399;83;20417;-65
2022/06/03 11:25:25;;;;;;;7.78;4.50;;;;;;;28.60;45.59;96108.02;1733756;83;21057;-66
2022/06/03 11:28:05;;;;;;;4.87;4.37;;;;;;;28.79;43.73;96110.05;1733613;83;21014;-65
2022/06/03 11:30:55;;;;;;;4.75;4.12;;;;;;;29.14;43.62;96104.90;1707032;83;21058;-65
2022/06/03 11:33:58;;;;;;;7.47;4.20;;;;;;;29.38;42.50;96107.86;1732770;83;21527;-65
2022/06/03 11:36:33;;;;;;;5.53;3.87;;;;;;;29.62;42.01;96100.81;1733773;83;21029;-65
2022/06/03 11:39:27;;;;;;;5.97;4.08;;;;;;;29.84;43.29;96103.42;1733345;83;21101;-65
2022/06/03 11:42:11;;;;;;;4.30;3.90;;;;;;;30.15;42.77;96098.84;1733756;83;21473;-66
2022/06/03 11:44:50;;;;;;;5.05;3.87;;;;;;;30.35;40.32;96098.95;1733599;83;21035;-66
2022/06/03 11:47:24;;;;;;;4.95;4.45;;;;;;;30.64;41.53;96100.38;1733691;83;21065;-66
2022/06/03 11:49:51;;;;;;;5.83;4.03;;;;;;;30.75;37.94;96100.78;1739841;82;21014;-65
2022/06/03 11:52:18;;;;;;;5.80;4.10;;;;;;;30.53;37.26;96090.98;1740363;82;20970;-66
2022/06/03 11:54:45;;;;;;;5.03;3.98;;;;;;;30.15;38.24;96089.31;1740186;82;21017;-65
2022/06/03 11:57:12;;;;;;;5.15;4.33;;;;;;;29.69;38.06;96094.74;1740296;82;20990;-65
2022/06/03 11:59:57;;;;;;;5.45;4.15;;;;;;;29.34;42.34;96092.33;1740283;82;21022;-65
2022/06/03 12:03:04;;;;;;;5.20;4.35;;;;;;;29.38;43.18;96088.83;1740243;82;21034;-65
2022/06/03 12:05:48;;;;;;;8.05;4.75;;;;;;;29.04;42.65;96087.62;1740002;82;21097;-65
2022/06/03 12:08:20;;;;;;;6.45;4.80;;;;;;;28.74;42.96;96086.48;1738583;82;21061;-65
2022/06/03 12:13:14;;;;;;;7.75;4.95;;;;;;;28.33;42.51;96089.89;1739679;82;21591;-65
2022/06/03 12:13:45;;;;;;;7.25;4.33;;;;;;;28.34;44.64;96079.39;1735365;82;21053;-65
2022/06/03 12:16:17;;;;;;;6.65;4.70;;;;;;;29.09;45.40;96081.33;1740426;82;21037;-66
2022/06/03 12:18:59;;;;;;;8.03;4.35;;;;;;;29.49;43.94;96073.84;1740339;82;21575;-66
2022/06/03 12:21:34;;;;;;;4.50;4.10;;;;;;;30.01;38.35;96071.98;1740085;82;21069;-66
2022/06/03 12:24:32;;;;;;;6.45;4.33;;;;;;;30.59;39.36;96065.89;1740040;82;21006;-66
2022/06/03 12:27:03;;;;;;;6.50;4.00;;;;;;;30.82;39.03;96066.06;1740202;82;21026;-66
2022/06/03 12:29:38;;;;;;;4.87;4.12;;;;;;;31.59;36.62;96060.73;1740304;82;21045;-66
2022/06/03 12:32:13;;;;;;;5.05;3.90;;;;;;;31.85;34.48;96054.13;1740500;82;21564;-66
2022/06/03 12:34:40;;;;;;;6.33;3.80;;;;;;;32.43;36.45;96055.77;1740157;82;21021;-65
2022/06/03 12:37:29;;;;;;;8.15;4.03;;;;;;;33.09;34.19;96052.81;1740151;82;21054;-66
2022/06/03 12:40:07;;;;;;;6.72;4.03;;;;;;;33.38;32.72;96044.84;1740018;82;21006;-66
2022/06/03 12:42:41;;;;;;;5.47;3.37;;;;;;;33.88;33.73;96046.94;1726460;82;20986;-66
2022/06/03 12:45:14;;;;;;;4.87;3.90;;;;;;;33.70;34.25;96049.73;1739982;82;21093;-66
2022/06/03 12:47:48;;;;;;;6.25;3.70;;;;;;;33.83;35.98;96050.67;1737993;82;21045;-66
2022/06/03 12:50:26;;;;;;;5.35;3.62;;;;;;;33.65;32.30;96049.88;1740118;82;21049;-66
2022/06/03 12:52:58;;;;;;;5.15;3.55;;;;;;;33.11;34.06;96048.05;1739614;82;21038;-63
2022/06/03 12:55:31;;;;;;;6.50;3.80;;;;;;;32.29;34.76;96048.95;1740572;82;21041;-64
2022/06/03 12:58:01;;;;;;;5.80;3.98;;;;;;;31.66;36.05;96048.23;1739175;82;21037;-64
2022/06/03 13:00:33;;;;;;;7.17;4.05;;;;;;;31.28;37.65;96051.86;1739990;82;21041;-64
2022/06/03 13:03:03;;;;;;;;;;;;;;;30.94;37.63;96043.60;1742889;82;21033;-64
2022/06/03 13:05:47;;;;;;;5.05;4.30;;;;;;;30.48;38.54;96053.27;1740001;82;20148;-63
2022/06/03 13:08:34;;;;;;;5.22;4.10;;;;;;;30.20;39.52;96050.30;1740165;82;21054;-63
2022/06/03 13:11:24;;;;;;;10.88;4.37;;;;;;;29.96;39.92;96055.20;1740207;82;21025;-64
2022/06/03 13:14:02;;;;;;;5.17;3.72;;;;;;;30.30;40.89;96053.08;1740223;82;21038;-63
2022/06/03 13:16:37;;;;;;;5.72;4.10;;;;;;;31.30;40.34;96047.10;1739125;82;21029;-64
2022/06/03 13:19:18;;;;;;;5.70;4.20;;;;;;;31.80;35.93;96046.41;1740204;82;21025;-63
2022/06/03 13:22:09;;;;;;;8.20;4.12;;;;;;;32.57;36.87;96045.73;1740020;82;21818;-64
2022/06/03 13:24:39;;;;;;;6.28;3.95;;;;;;;33.25;34.27;96045.77;1740064;82;21022;-64
2022/06/03 13:27:23;;;;;;;5.17;3.40;;;;;;;33.72;32.71;96050.92;1740080;82;21029;-64
2022/06/03 13:29:56;;;;;;;4.67;3.60;;;;;;;33.81;32.20;96047.23;1739334;82;21038;-64